Time;durP1;ratioP1;P1;durP2;ratioP2;P2;SDS_P1;SDS_P2;PMS_P1;PMS_P2;Temp;Humidity;BMP_temperature;BMP_pressure;BME280_temperature;BME280_humidity;BME280_pressure;Samples;Min_cycle;Max_cycle;Signal;HPM_P1;HPM_P2
2023/09/25 00:00:52;;;;;;;6.73;5.50;;;11.10;99.90;;;;;;4997677;28;20540;-48
2023/09/25 00:03:17;;;;;;;8.60;6.50;;;11.10;99.90;;;;;;5000970;28;20536;-49
2023/09/25 00:05:45;;;;;;;7.87;6.10;;;11.10;99.90;;;;;;4998614;28;20448;-49
2023/09/25 00:08:11;;;;;;;8.50;5.63;;;11.10;99.90;;;;;;4998182;28;20284;-49
2023/09/25 00:10:36;;;;;;;7.70;6.40;;;11.10;99.90;;;;;;4997295;28;20533;-49
2023/09/25 00:13:02;;;;;;;9.23;5.70;;;11.10;99.90;;;;;;4998154;28;20195;-48
2023/09/25 00:15:28;;;;;;;8.20;6.00;;;11.10;99.90;;;;;;4997968;28;20671;-48
2023/09/25 00:17:53;;;;;;;6.70;5.80;;;11.00;99.90;;;;;;4997416;28;20194;-48
2023/09/25 00:20:24;;;;;;;8.97;5.90;;;11.10;99.90;;;;;;4997899;28;20679;-49
2023/09/25 00:22:51;;;;;;;12.90;6.30;;;11.10;99.90;;;;;;4998239;28;20251;-48
2023/09/25 00:25:20;;;;;;;8.27;6.50;;;11.10;99.90;;;;;;5001230;28;20450;-49
2023/09/25 00:27:46;;;;;;;5.70;5.10;;;11.20;99.90;;;;;;4997427;28;20622;-49
2023/09/25 00:30:13;;;;;;;10.10;6.40;;;11.10;99.90;;;;;;4997933;28;21033;-48
2023/09/25 00:32:39;;;;;;;7.80;5.90;;;11.10;99.90;;;;;;5000748;28;20568;-49
2023/09/25 00:35:06;;;;;;;8.47;5.70;;;11.10;99.90;;;;;;4997307;28;20442;-48
2023/09/25 00:37:32;;;;;;;7.60;5.77;;;11.10;99.90;;;;;;4997042;28;20198;-48
2023/09/25 00:40:07;;;;;;;7.87;5.87;;;11.00;99.90;;;;;;4998818;28;20438;-49
2023/09/25 00:42:34;;;;;;;6.77;5.33;;;11.00;99.90;;;;;;5000200;28;20449;-49
2023/09/25 00:44:59;;;;;;;8.53;6.23;;;11.00;99.90;;;;;;4996939;28;20966;-49
2023/09/25 00:47:25;;;;;;;5.93;5.20;;;10.90;99.90;;;;;;4996993;28;20651;-49
2023/09/25 00:49:50;;;;;;;6.33;5.40;;;10.90;99.90;;;;;;4997497;28;20188;-49
2023/09/25 00:52:16;;;;;;;9.00;5.97;;;10.90;99.90;;;;;;4997958;28;20275;-48
2023/09/25 00:54:42;;;;;;;7.83;6.00;;;10.80;99.90;;;;;;4997124;28;20585;-49
2023/09/25 00:57:09;;;;;;;9.17;5.87;;;10.80;99.90;;;;;;4998163;28;20181;-50
2023/09/25 00:59:37;;;;;;;10.20;5.40;;;10.90;99.90;;;;;;4997177;28;20451;-49
2023/09/25 01:02:02;;;;;;;5.47;4.97;;;10.80;99.90;;;;;;4996594;28;20446;-49
2023/09/25 01:04:28;;;;;;;6.73;5.70;;;10.80;99.90;;;;;;4997044;28;20512;-47
2023/09/25 01:06:54;;;;;;;6.20;5.40;;;10.70;99.90;;;;;;4996900;28;20227;-50
2023/09/25 01:09:19;;;;;;;8.13;5.50;;;10.80;99.90;;;;;;4999176;28;20225;-48
2023/09/25 01:11:45;;;;;;;7.13;5.27;;;10.70;99.90;;;;;;5000047;28;20290;-49
2023/09/25 01:14:10;;;;;;;6.63;5.43;;;10.70;99.90;;;;;;4997268;28;20249;-51
2023/09/25 01:16:38;;;;;;;5.80;5.00;;;10.70;99.90;;;;;;4996732;28;20257;-48
2023/09/25 01:19:06;;;;;;;8.13;5.93;;;10.70;99.90;;;;;;4997525;28;20217;-49
2023/09/25 01:21:33;;;;;;;7.87;4.90;;;10.70;99.90;;;;;;4996509;28;20947;-48
2023/09/25 01:23:59;;;;;;;7.20;5.63;;;10.70;99.90;;;;;;4996176;28;20478;-49
2023/09/25 01:26:25;;;;;;;5.47;4.97;;;10.60;99.90;;;;;;4996294;28;20441;-48
2023/09/25 01:28:51;;;;;;;6.33;5.27;;;10.70;99.90;;;;;;4999901;28;20645;-49
2023/09/25 01:31:16;;;;;;;8.80;5.80;;;10.60;99.90;;;;;;5002636;28;20645;-49
2023/09/25 01:33:42;;;;;;;7.10;5.50;;;10.60;99.90;;;;;;5002038;28;20202;-49
2023/09/25 01:36:09;;;;;;;6.23;5.40;;;10.60;99.90;;;;;;5001636;28;20279;-48
2023/09/25 01:38:35;;;;;;;6.13;5.57;;;10.60;99.90;;;;;;5000729;28;20204;-49
2023/09/25 01:41:01;;;;;;;13.00;5.83;;;10.60;99.90;;;;;;5000461;28;20449;-49
2023/09/25 01:43:26;;;;;;;7.17;5.70;;;10.60;99.90;;;;;;5001755;28;24239;-49
2023/09/25 01:45:52;;;;;;;5.70;5.20;;;10.60;99.90;;;;;;5000530;28;20820;-49
2023/09/25 01:48:17;;;;;;;7.97;5.90;;;10.50;99.90;;;;;;5000677;28;20655;-48
2023/09/25 01:50:43;;;;;;;5.50;4.63;;;10.50;99.90;;;;;;5000321;28;20195;-49
2023/09/25 01:53:09;;;;;;;6.80;6.10;;;10.50;99.90;;;;;;5000723;28;20193;-49
2023/09/25 01:55:35;;;;;;;6.60;5.20;;;10.50;99.90;;;;;;5000328;28;20194;-49
2023/09/25 01:58:02;;;;;;;7.10;6.20;;;10.50;99.90;;;;;;4999760;28;20452;-48
2023/09/25 02:00:28;;;;;;;6.43;5.30;;;10.40;99.90;;;;;;5000492;28;20522;-49
2023/09/25 02:02:53;;;;;;;6.10;5.50;;;10.40;99.90;;;;;;4999569;28;20631;-49
2023/09/25 02:05:19;;;;;;;6.63;5.77;;;10.40;99.90;;;;;;4999421;28;20202;-48
2023/09/25 02:07:45;;;;;;;7.73;5.80;;;10.40;99.90;;;;;;5000186;28;20192;-49
2023/09/25 02:10:11;;;;;;;6.67;5.43;;;10.40;99.90;;;;;;5000159;28;20233;-49
2023/09/25 02:12:36;;;;;;;8.40;5.03;;;10.30;99.90;;;;;;4999362;28;20236;-49
2023/09/25 02:15:05;;;;;;;5.70;5.20;;;10.30;99.90;;;;;;5000443;28;20277;-48
2023/09/25 02:17:31;;;;;;;7.13;5.70;;;10.30;99.90;;;;;;5002254;28;20187;-49
2023/09/25 02:20:09;;;;;;;6.30;5.70;;;10.30;99.90;;;;;;4999527;28;20472;-49
2023/09/25 02:22:34;;;;;;;7.90;5.63;;;10.30;99.90;;;;;;4999910;28;20719;-48
2023/09/25 02:25:00;;;;;;;6.37;5.77;;;10.30;99.90;;;;;;4999572;28;20455;-49
2023/09/25 02:27:25;;;;;;;6.47;5.87;;;10.30;99.90;;;;;;4999775;28;20183;-48
2023/09/25 02:29:51;;;;;;;7.00;5.77;;;10.30;99.90;;;;;;5003633;28;20194;-49
2023/09/25 02:32:16;;;;;;;8.87;6.27;;;10.30;99.90;;;;;;5005051;28;20185;-49
2023/09/25 02:34:42;;;;;;;11.50;6.13;;;10.20;99.90;;;;;;5001461;28;20282;-47
2023/09/25 02:37:07;;;;;;;7.93;5.40;;;10.20;99.90;;;;;;4999085;28;20218;-49
2023/09/25 02:39:33;;;;;;;6.53;5.60;;;10.20;99.90;;;;;;4998247;28;20244;-48
2023/09/25 02:41:58;;;;;;;6.73;5.63;;;10.20;99.90;;;;;;4999063;28;20279;-49
2023/09/25 02:44:24;;;;;;;8.40;6.17;;;10.20;99.90;;;;;;4999559;28;20243;-49
2023/09/25 02:46:50;;;;;;;6.30;5.70;;;10.20;99.90;;;;;;4999496;28;20651;-48
2023/09/25 02:49:15;;;;;;;8.53;6.20;;;10.20;99.90;;;;;;4998856;28;20176;-49
2023/09/25 02:51:41;;;;;;;6.90;6.07;;;10.20;99.90;;;;;;4999530;28;20523;-49
2023/09/25 02:54:07;;;;;;;6.43;5.83;;;10.20;99.90;;;;;;4998829;28;20599;-48
2023/09/25 02:56:32;;;;;;;6.10;5.30;;;10.20;99.90;;;;;;4998992;28;20702;-48
2023/09/25 02:58:58;;;;;;;5.80;5.30;;;10.20;99.90;;;;;;4999061;28;20437;-49
2023/09/25 03:01:23;;;;;;;6.80;5.20;;;10.10;99.90;;;;;;4998988;28;20670;-48
2023/09/25 03:03:49;;;;;;;8.20;5.57;;;10.10;99.90;;;;;;4999279;28;20290;-49
2023/09/25 03:06:15;;;;;;;7.60;5.70;;;10.10;99.90;;;;;;4999495;28;20658;-48
2023/09/25 03:08:40;;;;;;;7.10;5.87;;;10.10;99.90;;;;;;5002096;28;20645;-49
2023/09/25 03:11:06;;;;;;;5.97;5.30;;;10.10;99.90;;;;;;5003566;28;20247;-49
2023/09/25 03:13:32;;;;;;;9.23;6.37;;;10.10;99.90;;;;;;4998977;28;20190;-49
2023/09/25 03:15:57;;;;;;;6.77;6.00;;;10.10;99.90;;;;;;5004654;28;20244;-49
2023/09/25 03:18:23;;;;;;;7.17;5.87;;;10.10;99.90;;;;;;4999670;28;20442;-48
2023/09/25 03:20:48;;;;;;;6.33;5.33;;;10.10;99.90;;;;;;4998687;28;20214;-49
2023/09/25 03:23:14;;;;;;;6.13;5.40;;;10.00;99.90;;;;;;4998574;28;20712;-48
2023/09/25 03:25:41;;;;;;;9.27;6.23;;;10.10;99.90;;;;;;4998585;28;20199;-50
2023/09/25 03:28:07;;;;;;;7.73;5.77;;;10.10;99.90;;;;;;4998221;28;20445;-48
2023/09/25 03:30:32;;;;;;;6.87;6.17;;;10.10;99.90;;;;;;4998773;28;20445;-49
2023/09/25 03:32:58;;;;;;;7.43;5.60;;;10.10;99.90;;;;;;4998250;28;20530;-49
2023/09/25 03:35:24;;;;;;;7.10;6.40;;;10.10;99.90;;;;;;4998153;28;20218;-48
2023/09/25 03:37:49;;;;;;;12.10;6.80;;;10.10;99.90;;;;;;4998460;28;20188;-49
2023/09/25 03:40:15;;;;;;;8.30;6.07;;;10.10;99.90;;;;;;4998161;28;20725;-49
2023/09/25 03:42:41;;;;;;;6.13;5.53;;;10.00;99.90;;;;;;4998167;28;20193;-48
2023/09/25 03:45:08;;;;;;;7.13;6.43;;;10.00;99.90;;;;;;4999929;28;20192;-49
2023/09/25 03:47:34;;;;;;;8.03;6.27;;;10.00;99.90;;;;;;4998544;28;20837;-49
2023/09/25 03:50:01;;;;;;;9.10;6.00;;;10.00;99.90;;;;;;4997832;28;20441;-48
2023/09/25 03:52:27;;;;;;;6.20;5.63;;;10.00;99.90;;;;;;4996644;28;20497;-48
2023/09/25 03:54:52;;;;;;;6.80;5.97;;;10.00;99.90;;;;;;4998912;28;20449;-49
2023/09/25 03:57:18;;;;;;;8.37;6.23;;;10.00;99.90;;;;;;5001655;28;20434;-48
2023/09/25 03:59:44;;;;;;;7.33;5.80;;;10.00;99.90;;;;;;4998059;28;20199;-49
2023/09/25 04:02:09;;;;;;;6.80;6.20;;;10.00;99.90;;;;;;4997415;28;20651;-48
2023/09/25 04:04:35;;;;;;;7.10;5.20;;;10.00;99.90;;;;;;5006398;28;20223;-49
2023/09/25 04:07:00;;;;;;;184.53;96.30;;;10.00;99.90;;;;;;4998449;28;20555;-49
2023/09/25 04:09:26;;;;;;;195.33;116.50;;;10.00;99.90;;;;;;5001481;28;20299;-48
2023/09/25 04:11:51;;;;;;;29.67;18.80;;;10.00;99.90;;;;;;4997173;28;20627;-49
2023/09/25 04:14:17;;;;;;;18.43;11.50;;;10.00;99.90;;;;;;5000894;28;20200;-47
2023/09/25 04:16:42;;;;;;;12.50;9.00;;;10.00;99.90;;;;;;4999027;28;20215;-49
2023/09/25 04:19:08;;;;;;;8.53;6.00;;;10.00;99.90;;;;;;4997954;28;20191;-48
2023/09/25 04:21:33;;;;;;;7.00;5.93;;;10.00;99.90;;;;;;5002928;28;20274;-48
2023/09/25 04:24:02;;;;;;;7.47;6.20;;;10.00;99.90;;;;;;4997635;28;20266;-48
2023/09/25 04:26:28;;;;;;;7.53;6.30;;;10.00;99.90;;;;;;5001784;28;20291;-48
2023/09/25 04:28:55;;;;;;;11.03;6.00;;;10.00;99.90;;;;;;4996646;28;20542;-49
2023/09/25 04:31:20;;;;;;;6.67;6.00;;;9.90;99.90;;;;;;5000398;28;20210;-48
2023/09/25 04:33:46;;;;;;;6.83;6.00;;;10.00;99.90;;;;;;5005602;28;20442;-49
2023/09/25 04:36:12;;;;;;;7.47;6.00;;;10.00;99.90;;;;;;5002273;28;20266;-49
2023/09/25 04:38:38;;;;;;;7.63;6.10;;;10.00;99.90;;;;;;4996933;28;20203;-48
2023/09/25 04:41:04;;;;;;;7.07;6.37;;;10.00;99.90;;;;;;4997933;28;20434;-49
2023/09/25 04:43:32;;;;;;;7.00;6.10;;;10.00;99.90;;;;;;5001056;28;20532;-51
2023/09/25 04:45:58;;;;;;;7.67;6.13;;;10.00;99.90;;;;;;4997230;28;20224;-48
2023/09/25 04:48:24;;;;;;;10.50;6.70;;;10.00;99.90;;;;;;4997130;28;20449;-47
2023/09/25 04:50:50;;;;;;;6.70;6.00;;;9.90;99.90;;;;;;5001112;28;20447;-48
2023/09/25 04:53:16;;;;;;;7.10;6.20;;;9.90;99.90;;;;;;5000943;28;21003;-49
2023/09/25 04:55:42;;;;;;;6.50;5.70;;;9.90;99.90;;;;;;5000176;28;20184;-51
2023/09/25 04:58:08;;;;;;;8.27;5.90;;;9.90;99.90;;;;;;5000676;28;20211;-50
2023/09/25 05:00:34;;;;;;;7.40;6.70;;;9.90;99.90;;;;;;5000936;28;20449;-48
2023/09/25 05:03:00;;;;;;;11.10;6.70;;;9.90;99.90;;;;;;4995844;28;21001;-49
2023/09/25 05:05:26;;;;;;;7.53;6.63;;;9.90;99.90;;;;;;5000309;28;20237;-50
2023/09/25 05:07:54;;;;;;;6.40;5.70;;;9.90;99.90;;;;;;5003956;28;21009;-48
2023/09/25 05:10:25;;;;;;;7.40;6.60;;;9.90;99.90;;;;;;5003833;28;20936;-48
2023/09/25 05:12:52;;;;;;;8.10;7.13;;;9.90;99.90;;;;;;5000291;28;20467;-49
2023/09/25 05:15:18;;;;;;;7.70;6.60;;;9.90;99.90;;;;;;5002209;28;20461;-47
2023/09/25 05:17:45;;;;;;;6.60;6.00;;;9.90;99.90;;;;;;5002287;28;20516;-48
2023/09/25 05:20:18;;;;;;;10.93;7.00;;;9.90;99.90;;;;;;5001585;28;20556;-48
2023/09/25 05:22:54;;;;;;;8.00;6.60;;;9.90;99.90;;;;;;5000885;28;20539;-47
2023/09/25 05:25:22;;;;;;;9.20;6.10;;;9.90;99.90;;;;;;4996353;28;20923;-48
2023/09/25 05:27:50;;;;;;;8.57;7.10;;;10.00;99.90;;;;;;4995845;28;20497;-49
2023/09/25 05:30:17;;;;;;;8.50;7.10;;;10.00;99.90;;;;;;4999896;28;20439;-47
2023/09/25 05:32:49;;;;;;;10.90;6.33;;;10.00;99.90;;;;;;4998873;28;20526;-51
2023/09/25 05:35:15;;;;;;;10.30;6.60;;;10.10;99.90;;;;;;5001277;28;20430;-50
2023/09/25 05:37:42;;;;;;;9.23;7.10;;;10.10;99.90;;;;;;4998356;28;20845;-49
2023/09/25 05:40:10;;;;;;;13.07;6.50;;;10.20;99.90;;;;;;4996826;28;20444;-51
2023/09/25 05:42:39;;;;;;;7.47;6.50;;;10.20;99.90;;;;;;4999169;28;20780;-49
2023/09/25 05:45:05;;;;;;;15.60;7.07;;;10.30;99.90;;;;;;4996171;28;20890;-49
2023/09/25 05:47:31;;;;;;;7.03;6.33;;;10.40;99.90;;;;;;4999363;28;20468;-50
2023/09/25 05:49:57;;;;;;;7.70;6.27;;;10.40;99.90;;;;;;4996642;28;20843;-49
2023/09/25 05:52:23;;;;;;;6.70;6.10;;;10.50;99.90;;;;;;5000060;28;20523;-52
2023/09/25 05:54:49;;;;;;;11.53;6.10;;;10.60;99.90;;;;;;4997147;28;20573;-49
2023/09/25 05:57:15;;;;;;;9.37;6.63;;;10.70;99.90;;;;;;4998051;28;20247;-49
2023/09/25 05:59:40;;;;;;;7.30;6.40;;;10.70;99.90;;;;;;5001384;28;20456;-47
2023/09/25 06:02:07;;;;;;;7.23;6.53;;;10.80;99.90;;;;;;4999591;28;20446;-49
2023/09/25 06:04:36;;;;;;;7.90;5.83;;;10.90;99.90;;;;;;4997347;28;20223;-49
2023/09/25 06:07:03;;;;;;;7.50;6.53;;;11.00;99.90;;;;;;4999254;28;20446;-49
2023/09/25 06:09:29;;;;;;;8.53;6.40;;;11.20;90.30;;;;;;4997933;28;20469;-48
2023/09/25 06:11:55;;;;;;;6.70;6.10;;;11.20;30.00;;;;;;4999405;28;20441;-48
2023/09/25 06:14:21;;;;;;;5.30;4.80;;;11.40;7.10;;;;;;5000973;28;20437;-50
2023/09/25 06:16:48;;;;;;;5.90;5.30;;;11.50;1.00;;;;;;5000582;28;20219;-49
2023/09/25 06:19:14;;;;;;;5.90;5.40;;;11.50;1.00;;;;;;5001621;28;20455;-49
2023/09/25 06:21:40;;;;;;;6.13;5.53;;;11.60;1.00;;;;;;5003851;28;20434;-50
2023/09/25 06:24:09;;;;;;;7.63;5.20;;;11.70;1.00;;;;;;5003057;28;20238;-49
2023/09/25 06:26:35;;;;;;;6.20;5.60;;;11.80;1.00;;;;;;5001877;28;20284;-49
2023/09/25 06:29:01;;;;;;;5.93;5.43;;;11.90;1.00;;;;;;5001655;28;20455;-50
2023/09/25 06:31:27;;;;;;;6.80;5.50;;;12.00;99.90;;;;;;5001953;28;20452;-49
2023/09/25 06:33:53;;;;;;;9.23;5.70;;;12.10;99.90;;;;;;4999811;28;20678;-49
2023/09/25 06:36:19;;;;;;;5.30;4.80;;;12.20;99.90;;;;;;4999975;28;20472;-49
2023/09/25 06:38:45;;;;;;;8.70;5.13;;;12.30;99.90;;;;;;5000385;28;20523;-48
2023/09/25 06:41:11;;;;;;;5.80;5.20;;;12.40;43.20;;;;;;4999108;28;20445;-49
2023/09/25 06:43:37;;;;;;;5.67;5.17;;;12.40;1.00;;;;;;5000285;28;20230;-50
2023/09/25 06:46:03;;;;;;;5.10;4.70;;;12.50;1.00;;;;;;5000111;28;20479;-49
2023/09/25 06:48:32;;;;;;;6.13;4.97;;;12.60;1.00;;;;;;4998921;28;20532;-49
2023/09/25 06:50:57;;;;;;;7.20;5.70;;;12.80;99.90;;;;;;4999157;28;20476;-50
2023/09/25 06:53:23;;;;;;;5.37;4.87;;;12.80;21.00;;;;;;5002022;28;20475;-49
2023/09/25 06:55:49;;;;;;;6.83;4.57;;;12.90;1.00;;;;;;5000547;28;20186;-50
2023/09/25 06:58:14;;;;;;;6.10;5.50;;;13.00;99.90;;;;;;5001718;28;20583;-50
2023/09/25 07:00:40;;;;;;;6.20;4.63;;;13.10;97.40;;;;;;5000750;28;20187;-50
2023/09/25 07:03:05;;;;;;;5.87;4.83;;;13.10;99.90;;;;;;5004099;28;20237;-50
2023/09/25 07:05:31;;;;;;;5.47;4.80;;;13.20;1.00;;;;;;5001983;28;20545;-50
2023/09/25 07:07:59;;;;;;;5.47;4.43;;;13.30;99.90;;;;;;5002808;28;20191;-49
2023/09/25 07:10:25;;;;;;;4.37;3.83;;;13.40;99.90;;;;;;5006833;28;20196;-50
2023/09/25 07:12:50;;;;;;;4.60;4.20;;;13.60;99.90;;;;;;5004373;28;20490;-51
2023/09/25 07:15:16;;;;;;;6.73;4.60;;;13.80;99.90;;;;;;4998660;28;20225;-51
2023/09/25 07:17:41;;;;;;;4.90;4.40;;;14.10;99.90;;;;;;4998436;28;20673;-51
2023/09/25 07:20:09;;;;;;;10.13;4.50;;;14.50;99.90;;;;;;5003015;28;20227;-52
2023/09/25 07:22:35;;;;;;;4.30;3.90;;;14.90;17.30;;;;;;5001631;28;20239;-51
2023/09/25 07:25:01;;;;;;;4.17;3.87;;;15.20;1.00;;;;;;4999052;28;20969;-51
2023/09/25 07:27:28;;;;;;;3.87;3.47;;;15.40;1.00;;;;;;4998633;28;20228;-52
2023/09/25 07:29:53;;;;;;;4.33;3.40;;;15.40;1.00;;;;;;4999381;28;20195;-51
2023/09/25 07:32:19;;;;;;;3.77;3.47;;;15.50;1.00;;;;;;5000983;28;20434;-52
2023/09/25 07:34:45;;;;;;;6.40;4.00;;;15.70;1.00;;;;;;4998269;28;20211;-52
2023/09/25 07:37:12;;;;;;;5.10;3.60;;;15.90;1.00;;;;;;4998723;28;20533;-51
2023/09/25 07:39:40;;;;;;;4.20;3.80;;;16.10;1.00;;;;;;4998150;28;20445;-52
2023/09/25 07:42:06;;;;;;;3.67;3.30;;;16.40;1.00;;;;;;4998455;28;20927;-52
2023/09/25 07:44:33;;;;;;;3.43;3.10;;;16.60;1.00;;;;;;5003117;28;20506;-52
2023/09/25 07:47:00;;;;;;;4.00;3.43;;;16.90;1.00;;;;;;5005547;28;20449;-52
2023/09/25 07:49:27;;;;;;;4.10;3.00;;;17.40;1.00;;;;;;5004774;28;20532;-51
2023/09/25 07:51:53;;;;;;;3.50;3.13;;;17.60;1.00;;;;;;5001677;28;20830;-52
2023/09/25 07:54:19;;;;;;;7.77;2.90;;;18.10;1.00;;;;;;5002180;28;20435;-52
2023/09/25 07:56:46;;;;;;;4.30;3.23;;;18.80;1.00;;;;;;5004718;28;20273;-53
2023/09/25 07:59:13;;;;;;;6.73;2.90;;;19.20;1.00;;;;;;4998920;28;20437;-51
2023/09/25 08:01:39;;;;;;;6.47;2.80;;;19.40;1.00;;;;;;5002216;28;20478;-52
2023/09/25 08:04:05;;;;;;;4.33;2.63;;;19.60;1.00;;;;;;5002979;28;20896;-52
2023/09/25 08:06:31;;;;;;;4.63;3.60;;;19.40;1.00;;;;;;5009122;28;20428;-52
2023/09/25 08:08:57;;;;;;;3.00;2.80;;;18.90;1.00;;;;;;5001843;28;20450;-54
2023/09/25 08:11:24;;;;;;;4.63;2.70;;;18.60;1.00;;;;;;4998097;28;20192;-54
2023/09/25 08:13:50;;;;;;;5.00;2.73;;;18.40;1.00;;;;;;4998240;28;20186;-53
2023/09/25 08:16:18;;;;;;;8.63;2.83;;;18.30;1.00;;;;;;4997358;28;20992;-52
2023/09/25 08:18:44;;;;;;;6.43;3.27;;;18.30;1.00;;;;;;4998165;28;21041;-52
2023/09/25 08:21:10;;;;;;;2.83;2.63;;;18.50;1.00;;;;;;5001383;28;20471;-52
2023/09/25 08:23:36;;;;;;;3.23;3.03;;;18.70;1.00;;;;;;4997138;28;20585;-52
2023/09/25 08:26:08;;;;;;;4.10;2.83;;;18.90;1.00;;;;;;4997107;28;20188;-52
2023/09/25 08:28:34;;;;;;;3.17;2.73;;;19.20;1.00;;;;;;4997419;28;20441;-53
2023/09/25 08:31:00;;;;;;;3.60;2.87;;;19.50;1.00;;;;;;5001885;28;20433;-52
2023/09/25 08:33:25;;;;;;;5.97;2.80;;;19.60;1.00;;;;;;4999329;28;20450;-54
2023/09/25 08:35:52;;;;;;;2.93;2.60;;;19.50;1.00;;;;;;5002136;28;20703;-52
2023/09/25 08:38:17;;;;;;;4.93;2.70;;;19.50;1.00;;;;;;5002461;28;20261;-52
2023/09/25 08:40:48;;;;;;;5.57;2.60;;;19.60;1.00;;;;;;5014414;28;20427;-53
2023/09/25 08:43:14;;;;;;;4.97;2.60;;;19.80;1.00;;;;;;5001420;28;20550;-52
2023/09/25 08:45:42;;;;;;;4.57;2.77;;;20.10;1.00;;;;;;5003937;28;20500;-52
2023/09/25 08:48:11;;;;;;;2.93;2.60;;;20.20;1.00;;;;;;5013721;28;20443;-54
2023/09/25 08:50:39;;;;;;;4.30;2.83;;;20.60;1.00;;;;;;5014448;28;20430;-53
2023/09/25 08:53:06;;;;;;;3.30;2.80;;;20.90;1.00;;;;;;5014143;28;20912;-53
2023/09/25 08:55:32;;;;;;;6.17;2.70;;;21.10;1.00;;;;;;5014069;28;20422;-53
2023/09/25 08:58:00;;;;;;;5.93;2.87;;;21.10;1.00;;;;;;5014332;28;20415;-54
2023/09/25 09:00:26;;;;;;;3.87;2.70;;;21.00;1.00;;;;;;5014491;28;20427;-53
2023/09/25 09:02:52;;;;;;;2.60;2.40;;;21.00;1.00;;;;;;5013239;28;20435;-53
2023/09/25 09:05:17;;;;;;;5.33;2.80;;;21.00;1.00;;;;;;5014487;28;20238;-53
2023/09/25 09:08:02;;;;;;;3.20;2.40;;;20.90;1.00;;;;;;5013203;28;20551;-54
2023/09/25 09:10:39;;;;;;;3.67;2.37;;;20.80;1.00;;;;;;5014263;28;20624;-52
2023/09/25 09:13:11;;;;;;;3.43;2.30;;;20.80;1.00;;;;;;5014041;28;20411;-53
2023/09/25 09:15:38;;;;;;;3.10;2.80;;;20.80;1.00;;;;;;5013784;28;20441;-53
2023/09/25 09:18:32;;;;;;;3.70;2.40;;;20.70;1.00;;;;;;5013943;28;20422;-53
2023/09/25 09:20:58;;;;;;;5.73;2.50;;;20.60;1.00;;;;;;5013508;28;20438;-53
2023/09/25 09:23:40;;;;;;;6.20;2.03;;;20.50;1.00;;;;;;5012779;28;21009;-53
2023/09/25 09:26:07;;;;;;;7.77;2.33;;;20.40;1.00;;;;;;5012659;28;20196;-53
2023/09/25 09:28:33;;;;;;;2.37;2.17;;;20.40;1.00;;;;;;5014100;28;20419;-53
2023/09/25 09:31:02;;;;;;;7.33;2.43;;;20.40;1.00;;;;;;5010098;28;20412;-53
2023/09/25 09:33:29;;;;;;;7.30;2.23;;;20.40;1.00;;;;;;4994302;28;20188;-53
2023/09/25 09:35:58;;;;;;;3.43;2.00;;;20.40;1.00;;;;;;4999684;28;20443;-53
2023/09/25 09:38:25;;;;;;;2.20;2.00;;;20.40;1.00;;;;;;4996358;28;20565;-53
2023/09/25 09:40:51;;;;;;;3.87;2.00;;;20.40;1.00;;;;;;4996801;28;20539;-53
2023/09/25 09:43:17;;;;;;;3.20;2.10;;;20.40;1.00;;;;;;4996601;28;20486;-53
2023/09/25 09:45:45;;;;;;;2.90;2.10;;;20.40;1.00;;;;;;4997391;28;20438;-52
2023/09/25 09:48:15;;;;;;;2.13;1.90;;;20.50;1.00;;;;;;4999776;28;20652;-52
2023/09/25 09:50:44;;;;;;;7.50;4.73;;;20.50;1.00;;;;;;5010069;28;20947;-52
2023/09/25 09:53:11;;;;;;;3.93;3.03;;;20.50;1.00;;;;;;5004099;28;20987;-53
2023/09/25 09:55:38;;;;;;;2.37;1.80;;;20.60;1.00;;;;;;5002892;28;20497;-50
2023/09/25 09:58:05;;;;;;;2.27;2.00;;;20.70;1.00;;;;;;5000568;28;20916;-52
2023/09/25 10:00:31;;;;;;;7.23;2.00;;;20.90;1.00;;;;;;5002853;28;20434;-51
2023/09/25 10:02:56;;;;;;;4.73;2.10;;;20.90;1.00;;;;;;4999583;28;20509;-51
2023/09/25 10:05:22;;;;;;;2.23;2.10;;;20.90;1.00;;;;;;5000516;28;20189;-50
2023/09/25 10:08:05;;;;;;;5.00;2.83;;;21.00;1.00;;;;;;4999595;28;20637;-51
2023/09/25 10:10:31;;;;;;;2.90;2.17;;;21.40;1.00;;;;;;4999772;28;20598;-52
2023/09/25 10:12:57;;;;;;;5.53;2.10;;;21.50;1.00;;;;;;5000266;28;20810;-50
2023/09/25 10:15:27;;;;;;;5.33;2.00;;;21.70;1.00;;;;;;5007488;28;20446;-49
2023/09/25 10:17:53;;;;;;;2.60;2.03;;;21.90;1.00;;;;;;4999320;28;20264;-50
2023/09/25 10:20:48;;;;;;;3.13;1.80;;;21.90;1.00;;;;;;5007419;28;20499;-49
2023/09/25 10:23:23;;;;;;;2.63;1.90;;;21.90;1.00;;;;;;4997699;28;20491;-49
2023/09/25 10:26:00;;;;;;;22.43;12.93;;;22.00;1.00;;;;;;5007568;28;20467;-51
2023/09/25 10:28:36;;;;;;;11.00;4.23;;;22.20;1.00;;;;;;5000035;28;20435;-50
2023/09/25 10:31:03;;;;;;;8.23;5.77;;;22.30;1.00;;;;;;5001319;28;20443;-50
2023/09/25 10:33:33;;;;;;;4.80;1.97;;;22.60;1.00;;;;;;4999957;28;20444;-51
2023/09/25 10:36:04;;;;;;;3.73;2.00;;;22.90;1.00;;;;;;4999698;28;20850;-51
2023/09/25 10:38:34;;;;;;;5.73;2.10;;;23.60;1.00;;;;;;4999688;28;20533;-50
2023/09/25 10:41:06;;;;;;;8.20;2.20;;;24.30;1.00;;;;;;5002619;28;20447;-50
2023/09/25 10:43:33;;;;;;;2.77;1.93;;;25.00;99.90;;;;;;5001772;28;20532;-51
2023/09/25 10:45:59;;;;;;;2.10;1.90;;;25.30;99.90;;;;;;4998554;28;20795;-51
2023/09/25 10:48:26;;;;;;;6.97;2.00;;;25.60;99.90;;;;;;5001698;28;20447;-51
2023/09/25 10:50:52;;;;;;;2.43;1.70;;;26.00;99.90;;;;;;5002830;28;20538;-52
2023/09/25 10:53:18;;;;;;;3.67;2.03;;;25.90;99.90;;;;;;4999453;28;20439;-52
2023/09/25 10:55:44;;;;;;;4.13;1.87;;;26.20;99.90;;;;;;4998624;28;21018;-52
2023/09/25 10:58:14;;;;;;;2.43;1.80;;;26.60;99.90;;;;;;5007591;28;20960;-52
2023/09/25 11:00:42;;;;;;;3.37;2.03;;;27.10;99.90;;;;;;4999208;28;20436;-50
2023/09/25 11:03:09;;;;;;;2.73;1.93;;;27.60;99.90;;;;;;4998780;28;20439;-49
2023/09/25 11:05:36;;;;;;;2.97;2.40;;;27.90;99.90;;;;;;5003014;28;20496;-50
2023/09/25 11:08:05;;;;;;;7.10;2.00;;;28.20;99.90;;;;;;4999563;28;20435;-49
2023/09/25 11:10:33;;;;;;;2.40;2.20;;;28.00;99.90;;;;;;5000617;28;20459;-50
2023/09/25 11:13:00;;;;;;;3.90;2.87;;;27.70;99.90;;;;;;4998658;28;20444;-51
2023/09/25 11:15:33;;;;;;;57.83;41.13;;;27.80;99.90;;;;;;5002632;28;20824;-50
2023/09/25 11:18:00;;;;;;;20.67;15.17;;;28.10;99.90;;;;;;5005080;28;20439;-50
2023/09/25 11:20:30;;;;;;;6.13;2.13;;;28.60;99.90;;;;;;5011331;28;20439;-51
2023/09/25 11:23:15;;;;;;;4.57;2.63;;;28.60;99.90;;;;;;5000772;28;20963;-51
2023/09/25 11:25:43;;;;;;;3.10;2.80;;;28.60;99.90;;;;;;5003609;28;20443;-52
2023/09/25 11:28:11;;;;;;;8.00;6.13;;;28.90;99.90;;;;;;5001978;28;20455;-53
2023/09/25 11:30:38;;;;;;;4.20;2.30;;;29.00;99.90;;;;;;5004957;28;20439;-50
2023/09/25 11:33:10;;;;;;;4.80;2.37;;;29.10;99.90;;;;;;5003697;28;20849;-51
2023/09/25 11:35:41;;;;;;;3.20;2.07;;;29.00;99.90;;;;;;5008551;28;20449;-50
2023/09/25 11:38:28;;;;;;;3.33;2.10;;;28.70;99.90;;;;;;5006237;28;20444;-52
2023/09/25 11:40:54;;;;;;;5.40;2.30;;;28.30;99.90;;;;;;5003165;28;20466;-52
2023/09/25 11:43:19;;;;;;;3.90;1.90;;;28.50;99.90;;;;;;4997957;28;20476;-53
2023/09/25 11:45:45;;;;;;;2.47;1.70;;;28.70;99.90;;;;;;4999527;28;20272;-51
2023/09/25 11:48:14;;;;;;;2.40;1.97;;;28.90;99.90;;;;;;5001564;28;20192;-51
2023/09/25 11:50:40;;;;;;;5.67;1.87;;;28.20;99.90;;;;;;4998092;28;20444;-51
2023/09/25 11:53:06;;;;;;;2.63;1.80;;;27.90;99.90;;;;;;5000015;28;20958;-52
2023/09/25 11:55:32;;;;;;;2.70;2.20;;;27.70;99.90;;;;;;4998636;28;20640;-51
2023/09/25 11:57:58;;;;;;;2.90;1.87;;;27.50;99.90;;;;;;5002130;28;20177;-53
2023/09/25 12:00:27;;;;;;;2.90;2.27;;;27.40;99.90;;;;;;4998741;28;20443;-51
2023/09/25 12:02:53;;;;;;;3.07;1.87;;;27.20;99.90;;;;;;5004501;28;20188;-52
2023/09/25 12:05:20;;;;;;;4.90;2.00;;;27.10;99.90;;;;;;4997251;28;20498;-52
2023/09/25 12:07:47;;;;;;;3.00;1.80;;;27.20;99.90;;;;;;4997609;28;20438;-51
2023/09/25 12:10:16;;;;;;;1.77;1.67;;;27.10;99.90;;;;;;5004233;28;20471;-52
2023/09/25 12:12:44;;;;;;;3.47;1.97;;;27.00;99.90;;;;;;5004537;28;20527;-53
2023/09/25 12:15:12;;;;;;;2.77;2.10;;;26.80;99.90;;;;;;5001353;28;20431;-51
2023/09/25 12:17:39;;;;;;;4.10;2.17;;;26.60;99.90;;;;;;5000347;28;21045;-52
2023/09/25 12:20:15;;;;;;;3.10;1.97;;;26.60;99.90;;;;;;4999343;28;20531;-53
2023/09/25 12:22:46;;;;;;;2.10;1.80;;;26.60;99.90;;;;;;5001368;28;20529;-51
2023/09/25 12:25:13;;;;;;;6.80;1.97;;;26.30;99.90;;;;;;5001230;28;20472;-52
2023/09/25 12:27:43;;;;;;;3.47;2.13;;;26.30;99.90;;;;;;4998427;28;20538;-52
2023/09/25 12:30:11;;;;;;;2.63;1.80;;;26.50;99.90;;;;;;4997793;28;20432;-52
2023/09/25 12:32:37;;;;;;;2.47;2.27;;;26.70;99.90;;;;;;4997155;28;20432;-52
2023/09/25 12:35:07;;;;;;;4.37;1.80;;;26.80;99.90;;;;;;4997351;28;20455;-52
2023/09/25 12:37:33;;;;;;;2.23;1.90;;;26.90;99.90;;;;;;5000367;28;20447;-52
2023/09/25 12:39:59;;;;;;;4.73;2.67;;;26.60;99.90;;;;;;5001921;28;20801;-52
2023/09/25 12:42:25;;;;;;;4.17;2.17;;;26.20;99.90;;;;;;5003505;28;20447;-51
2023/09/25 12:44:51;;;;;;;2.40;1.80;;;25.80;99.90;;;;;;4997172;28;20479;-53
2023/09/25 12:47:18;;;;;;;2.70;2.30;;;25.20;99.90;;;;;;4996835;28;20192;-52